Station History

Weather Underground - logo

Station Historical Data
Daily Summary for Nil La, TWC- Units:  Both    English   Metric
« Previous Day
Next Day »
Daily Weekly Monthly Yearly Custom
  High: Low: Average:
Temperature: 90.4 °F /  32.4 °C 55.6 °F /  13.1 °C 72.6 °F /  22.6 °C
Dew Point: 57.4 °F /  14.1 °C 47.4 °F /  8.6 °C 53.4 °F /  11.9 °C
Humidity: 82 % 24 % 56 %
Wind Speed: 4.6 mph /  7.4 km/h - 0.8 mph /  1.3 km/h
Wind Gust: 2 mph /  3.2 km/h - -
Wind:- - SSW
Pressure: 29.84 in /  1010.4 hPa 29.74 in /  1007 hPa -
Precipitation: 0 in /  0 mm    
Historical Graphs
 
 
Tabular Data for Nil La, TWC-
Time Temperature Dew Point Pressure Wind Wind Speed Wind Gust Humidity Rainfall Rate (Hourly)
00:04 65.2 °F /  18.4 °C 57.1 °F /  13.9 °C 29.77 in /  1008 hPa Calm     75 % 0 in /  0 mm
00:09 64.8 °F /  18.2 °C 57.1 °F /  13.9 °C 29.78 in /  1008.4 hPa Calm     76 % 0 in /  0 mm
00:14 64.1 °F /  17.8 °C 56.4 °F /  13.6 °C 29.78 in /  1008.4 hPa Calm     76 % 0 in /  0 mm
00:19 63.6 °F /  17.6 °C 56.3 °F /  13.5 °C 29.78 in /  1008.4 hPa Calm     77 % 0 in /  0 mm
00:24 63.3 °F /  17.4 °C 56.3 °F /  13.5 °C 29.78 in /  1008.4 hPa Calm     78 % 0 in /  0 mm
00:29 63 °F /  17.2 °C 56.4 °F /  13.6 °C 29.78 in /  1008.4 hPa Calm     79 % 0 in /  0 mm
00:34 62.8 °F /  17.1 °C 56.2 °F /  13.4 °C 29.78 in /  1008.4 hPa Calm     79 % 0 in /  0 mm
00:39 62.8 °F /  17.1 °C 56.5 °F /  13.6 °C 29.78 in /  1008.4 hPa Calm     80 % 0 in /  0 mm
00:44 62.6 °F /  17 °C 56.3 °F /  13.5 °C 29.78 in /  1008.4 hPa Calm     80 % 0 in /  0 mm
00:49 62.4 °F /  16.9 °C 56.1 °F /  13.4 °C 29.78 in /  1008.4 hPa Calm     80 % 0 in /  0 mm
00:54 62.2 °F /  16.8 °C 56 °F /  13.3 °C 29.78 in /  1008.4 hPa Calm     80 % 0 in /  0 mm
00:59 62.1 °F /  16.7 °C 56.2 °F /  13.4 °C 29.79 in /  1008.7 hPa Calm     81 % 0 in /  0 mm
01:04 62 °F /  16.7 °C 56.1 °F /  13.4 °C 29.79 in /  1008.7 hPa Calm     81 % 0 in /  0 mm
01:09 62 °F /  16.7 °C 56.1 °F /  13.4 °C 29.79 in /  1008.7 hPa Calm     81 % 0 in /  0 mm
01:14 62 °F /  16.7 °C 56.1 °F /  13.4 °C 29.79 in /  1008.7 hPa Calm     81 % 0 in /  0 mm
01:19 61.9 °F /  16.6 °C 55.7 °F /  13.2 °C 29.79 in /  1008.7 hPa Calm     80 % 0 in /  0 mm
01:24 61.8 °F /  16.6 °C 55.9 °F /  13.3 °C 29.79 in /  1008.7 hPa Calm     81 % 0 in /  0 mm
01:29 61.7 °F /  16.5 °C 55.8 °F /  13.2 °C 29.79 in /  1008.7 hPa Calm     81 % 0 in /  0 mm
01:34 61.7 °F /  16.5 °C 55.5 °F /  13.1 °C 29.79 in /  1008.7 hPa Calm   0.1 mph /  0.2 km/h 80 % 0 in /  0 mm
01:39 62 °F /  16.7 °C 55.4 °F /  13 °C 29.79 in /  1008.7 hPa Calm     79 % 0 in /  0 mm
01:44 62 °F /  16.7 °C 55.4 °F /  13 °C 29.79 in /  1008.7 hPa Calm     79 % 0 in /  0 mm
01:49 62.1 °F /  16.7 °C 55.2 °F /  12.9 °C 29.78 in /  1008.4 hPa Calm     78 % 0 in /  0 mm
01:54 62.2 °F /  16.8 °C 55.3 °F /  12.9 °C 29.79 in /  1008.7 hPa Calm     78 % 0 in /  0 mm
01:59 61.8 °F /  16.6 °C 54.9 °F /  12.7 °C 29.79 in /  1008.7 hPa Calm     78 % 0 in /  0 mm
02:04 61.6 °F /  16.4 °C 54.7 °F /  12.6 °C 29.79 in /  1008.7 hPa Calm     78 % 0 in /  0 mm
02:09 61.7 °F /  16.5 °C 55.1 °F /  12.8 °C 29.79 in /  1008.7 hPa Calm     79 % 0 in /  0 mm
02:14 61.4 °F /  16.3 °C 54.5 °F /  12.5 °C 29.79 in /  1008.7 hPa Calm     78 % 0 in /  0 mm
02:19 61.2 °F /  16.2 °C 55 °F /  12.8 °C 29.79 in /  1008.7 hPa Calm     80 % 0 in /  0 mm
02:24 60.9 °F /  16.1 °C 54.7 °F /  12.6 °C 29.79 in /  1008.7 hPa Calm     80 % 0 in /  0 mm
02:29 60.7 °F /  15.9 °C 54.1 °F /  12.3 °C 29.79 in /  1008.7 hPa Calm     79 % 0 in /  0 mm
02:34 60.5 °F /  15.8 °C 54 °F /  12.2 °C 29.79 in /  1008.7 hPa Calm     79 % 0 in /  0 mm
02:39 60.3 °F /  15.7 °C 53.8 °F /  12.1 °C 29.78 in /  1008.4 hPa Calm     79 % 0 in /  0 mm
02:44 60 °F /  15.6 °C 53.5 °F /  11.9 °C 29.78 in /  1008.4 hPa Calm     79 % 0 in /  0 mm
02:49 59.9 °F /  15.5 °C 53.4 °F /  11.9 °C 29.78 in /  1008.4 hPa Calm     79 % 0 in /  0 mm
02:54 59.8 °F /  15.4 °C 53.6 °F /  12 °C 29.78 in /  1008.4 hPa Calm     80 % 0 in /  0 mm
02:59 59.5 °F /  15.3 °C 53.7 °F /  12.1 °C 29.78 in /  1008.4 hPa Calm     81 % 0 in /  0 mm
03:04 59.3 °F /  15.2 °C 53.1 °F /  11.7 °C 29.78 in /  1008.4 hPa Calm     80 % 0 in /  0 mm
03:09 59.2 °F /  15.1 °C 53 °F /  11.7 °C 29.78 in /  1008.4 hPa Calm     80 % 0 in /  0 mm
03:14 59.1 °F /  15.1 °C 52.6 °F /  11.4 °C 29.78 in /  1008.4 hPa Calm     79 % 0 in /  0 mm
03:19 58.9 °F /  14.9 °C 52.4 °F /  11.3 °C 29.78 in /  1008.4 hPa Calm     79 % 0 in /  0 mm
03:24 58.8 °F /  14.9 °C 53 °F /  11.7 °C 29.78 in /  1008.4 hPa Calm     81 % 0 in /  0 mm
03:29 58.8 °F /  14.9 °C 53 °F /  11.7 °C 29.78 in /  1008.4 hPa Calm     81 % 0 in /  0 mm
03:34 58.6 °F /  14.8 °C 52.8 °F /  11.6 °C 29.78 in /  1008.4 hPa Calm     81 % 0 in /  0 mm
03:39 58.3 °F /  14.6 °C 52.5 °F /  11.4 °C 29.78 in /  1008.4 hPa Calm     81 % 0 in /  0 mm
03:44 58.1 °F /  14.5 °C 52.3 °F /  11.3 °C 29.78 in /  1008.4 hPa Calm     81 % 0 in /  0 mm
03:49 57.8 °F /  14.3 °C 52 °F /  11.1 °C 29.78 in /  1008.4 hPa Calm     81 % 0 in /  0 mm
03:54 57.7 °F /  14.3 °C 52.2 °F /  11.2 °C 29.78 in /  1008.4 hPa Calm     82 % 0 in /  0 mm
03:59 57.5 °F /  14.2 °C 51.7 °F /  10.9 °C 29.78 in /  1008.4 hPa Calm     81 % 0 in /  0 mm
04:04 57.5 °F /  14.2 °C 51.7 °F /  10.9 °C 29.78 in /  1008.4 hPa Calm   0.1 mph /  0.2 km/h 81 % 0 in /  0 mm
04:09 57.8 °F /  14.3 °C 51.7 °F /  10.9 °C 29.78 in /  1008.4 hPa SE 1.2 mph /  1.9 km/h   80 % 0 in /  0 mm
04:14 58 °F /  14.4 °C 51.2 °F /  10.7 °C 29.77 in /  1008 hPa Calm     78 % 0 in /  0 mm
04:19 58.3 °F /  14.6 °C 51.5 °F /  10.8 °C 29.77 in /  1008 hPa Calm     78 % 0 in /  0 mm
04:24 58.4 °F /  14.7 °C 51.6 °F /  10.9 °C 29.77 in /  1008 hPa Calm     78 % 0 in /  0 mm
04:29 58.4 °F /  14.7 °C 51.6 °F /  10.9 °C 29.78 in /  1008.4 hPa ESE 1.2 mph /  1.9 km/h   78 % 0 in /  0 mm
04:34 58.5 °F /  14.7 °C 51.3 °F /  10.7 °C 29.78 in /  1008.4 hPa East 1.2 mph /  1.9 km/h   77 % 0 in /  0 mm
04:39 58.5 °F /  14.7 °C 51.3 °F /  10.7 °C 29.78 in /  1008.4 hPa Calm     77 % 0 in /  0 mm
04:44 58.6 °F /  14.8 °C 51.4 °F /  10.8 °C 29.78 in /  1008.4 hPa Calm     77 % 0 in /  0 mm
04:49 58.5 °F /  14.7 °C 51.3 °F /  10.7 °C 29.77 in /  1008 hPa Calm     77 % 0 in /  0 mm
04:54 58.1 °F /  14.5 °C 51.3 °F /  10.7 °C 29.77 in /  1008 hPa Calm     78 % 0 in /  0 mm
04:59 57.7 °F /  14.3 °C 51.2 °F /  10.7 °C 29.77 in /  1008 hPa Calm     79 % 0 in /  0 mm
05:04 57.5 °F /  14.2 °C 51 °F /  10.6 °C 29.78 in /  1008.4 hPa Calm     79 % 0 in /  0 mm
05:09 57.4 °F /  14.1 °C 50.6 °F /  10.3 °C 29.78 in /  1008.4 hPa Calm     78 % 0 in /  0 mm
05:14 57.5 °F /  14.2 °C 50.7 °F /  10.4 °C 29.78 in /  1008.4 hPa Calm     78 % 0 in /  0 mm
05:19 57.6 °F /  14.2 °C 50.8 °F /  10.4 °C 29.78 in /  1008.4 hPa Calm     78 % 0 in /  0 mm
05:24 57.4 °F /  14.1 °C 50.6 °F /  10.3 °C 29.78 in /  1008.4 hPa Calm     78 % 0 in /  0 mm
05:29 57.1 °F /  13.9 °C 50.6 °F /  10.3 °C 29.78 in /  1008.4 hPa Calm     79 % 0 in /  0 mm
05:34 57 °F /  13.9 °C 50.2 °F /  10.1 °C 29.78 in /  1008.4 hPa Calm     78 % 0 in /  0 mm
05:39 57.1 °F /  13.9 °C 50.3 °F /  10.2 °C 29.78 in /  1008.4 hPa ESE 1.2 mph /  1.9 km/h   78 % 0 in /  0 mm
05:44 57 °F /  13.9 °C 50.2 °F /  10.1 °C 29.79 in /  1008.7 hPa Calm     78 % 0 in /  0 mm
05:49 56.9 °F /  13.8 °C 50.5 °F /  10.3 °C 29.79 in /  1008.7 hPa Calm     79 % 0 in /  0 mm
05:54 56.6 °F /  13.7 °C 50.2 °F /  10.1 °C 29.79 in /  1008.7 hPa Calm     79 % 0 in /  0 mm
05:59 56.4 °F /  13.6 °C 50.3 °F /  10.2 °C 29.79 in /  1008.7 hPa Calm     80 % 0 in /  0 mm
06:04 56.3 °F /  13.5 °C 50.2 °F /  10.1 °C 29.79 in /  1008.7 hPa Calm     80 % 0 in /  0 mm
06:09 56.3 °F /  13.5 °C 49.9 °F /  9.9 °C 29.80 in /  1009 hPa Calm     79 % 0 in /  0 mm
06:14 56.5 °F /  13.6 °C 49.7 °F /  9.8 °C 29.80 in /  1009 hPa SE 1.2 mph /  1.9 km/h   78 % 0 in /  0 mm
06:19 56.7 °F /  13.7 °C 49.9 °F /  9.9 °C 29.80 in /  1009 hPa Calm     78 % 0 in /  0 mm
06:24 56.9 °F /  13.8 °C 49.8 °F /  9.9 °C 29.80 in /  1009 hPa SE 1.2 mph /  1.9 km/h 0.1 mph /  0.2 km/h 77 % 0 in /  0 mm
06:29 57 °F /  13.9 °C 49.9 °F /  9.9 °C 29.80 in /  1009 hPa Calm     77 % 0 in /  0 mm
06:34 56.9 °F /  13.8 °C 50.1 °F /  10.1 °C 29.80 in /  1009 hPa Calm     78 % 0 in /  0 mm
06:39 56.6 °F /  13.7 °C 49.8 °F /  9.9 °C 29.80 in /  1009 hPa Calm     78 % 0 in /  0 mm
06:44 56.2 °F /  13.4 °C 49.4 °F /  9.7 °C 29.81 in /  1009.4 hPa Calm     78 % 0 in /  0 mm
06:49 55.9 °F /  13.3 °C 49.5 °F /  9.7 °C 29.81 in /  1009.4 hPa Calm     79 % 0 in /  0 mm
06:54 55.7 °F /  13.2 °C 49.6 °F /  9.8 °C 29.81 in /  1009.4 hPa Calm     80 % 0 in /  0 mm
06:59 55.6 °F /  13.1 °C 49.5 °F /  9.7 °C 29.81 in /  1009.4 hPa Calm     80 % 0 in /  0 mm
07:04 55.9 °F /  13.3 °C 49.8 °F /  9.9 °C 29.82 in /  1009.7 hPa Calm     80 % 0 in /  0 mm
07:09 56.1 °F /  13.4 °C 49.7 °F /  9.8 °C 29.82 in /  1009.7 hPa SE 1.2 mph /  1.9 km/h   79 % 0 in /  0 mm
07:14 56.3 °F /  13.5 °C 49.9 °F /  9.9 °C 29.82 in /  1009.7 hPa Calm     79 % 0 in /  0 mm
07:19 56.4 °F /  13.6 °C 50 °F /  10 °C 29.82 in /  1009.7 hPa Calm     79 % 0 in /  0 mm
07:24 56.5 °F /  13.6 °C 50.1 °F /  10.1 °C 29.82 in /  1009.7 hPa Calm     79 % 0 in /  0 mm
07:29 56.8 °F /  13.8 °C 50 °F /  10 °C 29.82 in /  1009.7 hPa Calm     78 % 0 in /  0 mm
07:34 57.2 °F /  14 °C 50.7 °F /  10.4 °C 29.83 in /  1010 hPa Calm     79 % 0 in /  0 mm
07:39 57.6 °F /  14.2 °C 50.8 °F /  10.4 °C 29.82 in /  1009.7 hPa SE 1.2 mph /  1.9 km/h   78 % 0 in /  0 mm
07:44 58.3 °F /  14.6 °C 50.8 °F /  10.4 °C 29.83 in /  1010 hPa SSE 1.2 mph /  1.9 km/h   76 % 0 in /  0 mm
07:49 59 °F /  15 °C 51.1 °F /  10.6 °C 29.83 in /  1010 hPa Calm     75 % 0 in /  0 mm
07:54 59.5 °F /  15.3 °C 51.6 °F /  10.9 °C 29.83 in /  1010 hPa Calm     75 % 0 in /  0 mm
07:59 60 °F /  15.6 °C 51.3 °F /  10.7 °C 29.84 in /  1010.4 hPa Calm   0.2 mph /  0.3 km/h 73 % 0 in /  0 mm
08:04 61.3 °F /  16.3 °C 51.8 °F /  11 °C 29.84 in /  1010.4 hPa SE 1.2 mph /  1.9 km/h   71 % 0 in /  0 mm
08:09 62.9 °F /  17.2 °C 52.2 °F /  11.2 °C 29.84 in /  1010.4 hPa SE 1.2 mph /  1.9 km/h   68 % 0 in /  0 mm
08:14 64.5 °F /  18.1 °C 52.5 °F /  11.4 °C 29.84 in /  1010.4 hPa SE 1 mph /  1.6 km/h 0.6 mph /  1 km/h 65 % 0 in /  0 mm
08:19 65.4 °F /  18.6 °C 51.6 °F /  10.9 °C 29.84 in /  1010.4 hPa SE 2.3 mph /  3.7 km/h 0.4 mph /  0.6 km/h 61 % 0 in /  0 mm
08:24 66.2 °F /  19 °C 51.9 °F /  11.1 °C 29.84 in /  1010.4 hPa SSE 1.2 mph /  1.9 km/h 0.4 mph /  0.6 km/h 60 % 0 in /  0 mm
08:29 67 °F /  19.4 °C 51.7 °F /  10.9 °C 29.84 in /  1010.4 hPa SE 3.5 mph /  5.6 km/h 0.5 mph /  0.8 km/h 58 % 0 in /  0 mm
08:34 67.8 °F /  19.9 °C 52 °F /  11.1 °C 29.84 in /  1010.4 hPa SSE 2 mph /  3.2 km/h 0.5 mph /  0.8 km/h 57 % 0 in /  0 mm
08:39 68.3 °F /  20.2 °C 52 °F /  11.1 °C 29.84 in /  1010.4 hPa ENE 2 mph /  3.2 km/h 0.5 mph /  0.8 km/h 56 % 0 in /  0 mm
08:44 68.8 °F /  20.4 °C 52 °F /  11.1 °C 29.84 in /  1010.4 hPa SE 4.6 mph /  7.4 km/h 0.7 mph /  1.1 km/h 55 % 0 in /  0 mm
08:49 69.2 °F /  20.7 °C 51.8 °F /  11 °C 29.84 in /  1010.4 hPa SSW 1.2 mph /  1.9 km/h 0.1 mph /  0.2 km/h 54 % 0 in /  0 mm
08:54 69.5 °F /  20.8 °C 52.1 °F /  11.2 °C 29.84 in /  1010.4 hPa Calm     54 % 0 in /  0 mm
08:59 70.1 °F /  21.2 °C 52.7 °F /  11.5 °C 29.84 in /  1010.4 hPa South 1.2 mph /  1.9 km/h 0.1 mph /  0.2 km/h 54 % 0 in /  0 mm
09:04 70.6 °F /  21.4 °C 52.6 °F /  11.4 °C 29.84 in /  1010.4 hPa ESE 1.2 mph /  1.9 km/h 0.1 mph /  0.2 km/h 53 % 0 in /  0 mm
09:09 71.3 °F /  21.8 °C 52.8 °F /  11.6 °C 29.84 in /  1010.4 hPa ENE 3.5 mph /  5.6 km/h 0.1 mph /  0.2 km/h 52 % 0 in /  0 mm
09:14 71.7 °F /  22.1 °C 53.1 °F /  11.7 °C 29.84 in /  1010.4 hPa SSE 3.5 mph /  5.6 km/h   52 % 0 in /  0 mm
09:19 72.2 °F /  22.3 °C 53.1 °F /  11.7 °C 29.84 in /  1010.4 hPa SE 1.2 mph /  1.9 km/h 0.1 mph /  0.2 km/h 51 % 0 in /  0 mm
09:24 72.8 °F /  22.7 °C 53.6 °F /  12 °C 29.84 in /  1010.4 hPa East 2 mph /  3.2 km/h 0.2 mph /  0.3 km/h 51 % 0 in /  0 mm
09:29 73.1 °F /  22.8 °C 53.9 °F /  12.2 °C 29.84 in /  1010.4 hPa South 1.2 mph /  1.9 km/h   51 % 0 in /  0 mm
09:34 73 °F /  22.8 °C 53.3 °F /  11.8 °C 29.84 in /  1010.4 hPa East 4 mph /  6.4 km/h 0.6 mph /  1 km/h 50 % 0 in /  0 mm
09:39 72.6 °F /  22.6 °C 53.4 °F /  11.9 °C 29.84 in /  1010.4 hPa SSW 2.3 mph /  3.7 km/h 0.4 mph /  0.6 km/h 51 % 0 in /  0 mm
09:44 73.4 °F /  23 °C 54.2 °F /  12.3 °C 29.84 in /  1010.4 hPa SSW 3.5 mph /  5.6 km/h 0.5 mph /  0.8 km/h 51 % 0 in /  0 mm
09:49 74.1 °F /  23.4 °C 53.7 °F /  12.1 °C 29.84 in /  1010.4 hPa SSW 4.6 mph /  7.4 km/h 1.4 mph /  2.3 km/h 49 % 0 in /  0 mm
09:54 74.6 °F /  23.7 °C 53 °F /  11.7 °C 29.84 in /  1010.4 hPa SSW 3.5 mph /  5.6 km/h 0.1 mph /  0.2 km/h 47 % 0 in /  0 mm
09:59 75.5 °F /  24.2 °C 53.9 °F /  12.2 °C 29.84 in /  1010.4 hPa East 2.3 mph /  3.7 km/h 0.4 mph /  0.6 km/h 47 % 0 in /  0 mm
10:04 76.3 °F /  24.6 °C 54.6 °F /  12.6 °C 29.84 in /  1010.4 hPa SSW 1.2 mph /  1.9 km/h   47 % 0 in /  0 mm
10:09 77.4 °F /  25.2 °C 53.8 °F /  12.1 °C 29.84 in /  1010.4 hPa SE 3.5 mph /  5.6 km/h 0.2 mph /  0.3 km/h 44 % 0 in /  0 mm
10:14 78.3 °F /  25.7 °C 53.3 °F /  11.8 °C 29.84 in /  1010.4 hPa NE 3.5 mph /  5.6 km/h 2 mph /  3.2 km/h 42 % 0 in /  0 mm
10:19 78.6 °F /  25.9 °C 52.3 °F /  11.3 °C 29.84 in /  1010.4 hPa South 1.2 mph /  1.9 km/h 1.3 mph /  2.1 km/h 40 % 0 in /  0 mm
10:24 79.2 °F /  26.2 °C 54.8 °F /  12.7 °C 29.84 in /  1010.4 hPa SSW 1.2 mph /  1.9 km/h   43 % 0 in /  0 mm
10:29 79.8 °F /  26.6 °C 53.3 °F /  11.8 °C 29.84 in /  1010.4 hPa SE 1.2 mph /  1.9 km/h 0.7 mph /  1.1 km/h 40 % 0 in /  0 mm
10:34 79.6 °F /  26.4 °C 53.1 °F /  11.7 °C 29.84 in /  1010.4 hPa SSW 2.3 mph /  3.7 km/h   40 % 0 in /  0 mm
10:39 79.9 °F /  26.6 °C 53.4 °F /  11.9 °C 29.84 in /  1010.4 hPa SE 2.3 mph /  3.7 km/h 1 mph /  1.6 km/h 40 % 0 in /  0 mm
10:44 79.6 °F /  26.4 °C 54.5 °F /  12.5 °C 29.84 in /  1010.4 hPa SE 2.3 mph /  3.7 km/h 0.8 mph /  1.3 km/h 42 % 0 in /  0 mm
10:49 79.1 °F /  26.2 °C 53.4 °F /  11.9 °C 29.84 in /  1010.4 hPa SSE 1.2 mph /  1.9 km/h 1 mph /  1.6 km/h 41 % 0 in /  0 mm
10:54 78.7 °F /  25.9 °C 53.7 °F /  12.1 °C 29.84 in /  1010.4 hPa South 1.2 mph /  1.9 km/h 0.3 mph /  0.5 km/h 42 % 0 in /  0 mm
10:59 78.7 °F /  25.9 °C 53.7 °F /  12.1 °C 29.84 in /  1010.4 hPa SE 1.2 mph /  1.9 km/h 0.1 mph /  0.2 km/h 42 % 0 in /  0 mm
11:04 78.7 °F /  25.9 °C 54.3 °F /  12.4 °C 29.84 in /  1010.4 hPa SE 1.2 mph /  1.9 km/h 0.4 mph /  0.6 km/h 43 % 0 in /  0 mm
11:09 78.8 °F /  26 °C 53.8 °F /  12.1 °C 29.84 in /  1010.4 hPa South 3.5 mph /  5.6 km/h 0.8 mph /  1.3 km/h 42 % 0 in /  0 mm
11:14 78.7 °F /  25.9 °C 53.7 °F /  12.1 °C 29.84 in /  1010.4 hPa SE 2.3 mph /  3.7 km/h 0.8 mph /  1.3 km/h 42 % 0 in /  0 mm
11:19 78.8 °F /  26 °C 54.4 °F /  12.4 °C 29.83 in /  1010 hPa Calm   0.3 mph /  0.5 km/h 43 % 0 in /  0 mm
11:24 79.4 °F /  26.3 °C 54.3 °F /  12.4 °C 29.83 in /  1010 hPa South 1.2 mph /  1.9 km/h 0.8 mph /  1.3 km/h 42 % 0 in /  0 mm
11:29 80.1 °F /  26.7 °C 56.2 °F /  13.4 °C 29.83 in /  1010 hPa SSW 2.3 mph /  3.7 km/h 0.2 mph /  0.3 km/h 44 % 0 in /  0 mm
11:34 80.5 °F /  26.9 °C 55.3 °F /  12.9 °C 29.83 in /  1010 hPa SE 1.2 mph /  1.9 km/h 0.2 mph /  0.3 km/h 42 % 0 in /  0 mm
11:39 80.8 °F /  27.1 °C 54.9 °F /  12.7 °C 29.83 in /  1010 hPa NNE 3.5 mph /  5.6 km/h 0.8 mph /  1.3 km/h 41 % 0 in /  0 mm
11:44 81.8 °F /  27.7 °C 55.1 °F /  12.8 °C 29.83 in /  1010 hPa SW 1.2 mph /  1.9 km/h 0.3 mph /  0.5 km/h 40 % 0 in /  0 mm
11:49 82.8 °F /  28.2 °C 54.6 °F /  12.6 °C 29.83 in /  1010 hPa SE 1.2 mph /  1.9 km/h 0.5 mph /  0.8 km/h 38 % 0 in /  0 mm
11:54 83.4 °F /  28.6 °C 56.5 °F /  13.6 °C 29.82 in /  1009.7 hPa South 1.2 mph /  1.9 km/h 0.1 mph /  0.2 km/h 40 % 0 in /  0 mm
11:59 83.8 °F /  28.8 °C 54.7 °F /  12.6 °C 29.83 in /  1010 hPa SW 2.3 mph /  3.7 km/h   37 % 0 in /  0 mm
12:04 84 °F /  28.9 °C 54.9 °F /  12.7 °C 29.82 in /  1009.7 hPa NNW 1.2 mph /  1.9 km/h 0.4 mph /  0.6 km/h 37 % 0 in /  0 mm
12:09 84.3 °F /  29.1 °C 55.2 °F /  12.9 °C 29.82 in /  1009.7 hPa SSE 3.5 mph /  5.6 km/h 0.6 mph /  1 km/h 37 % 0 in /  0 mm
12:14 84.7 °F /  29.3 °C 54.8 °F /  12.7 °C 29.82 in /  1009.7 hPa ESE 3 mph /  4.8 km/h 0.9 mph /  1.4 km/h 36 % 0 in /  0 mm
12:19 84.7 °F /  29.3 °C 54 °F /  12.2 °C 29.82 in /  1009.7 hPa SSE 2 mph /  3.2 km/h 0.6 mph /  1 km/h 35 % 0 in /  0 mm
12:24 84.9 °F /  29.4 °C 54.2 °F /  12.3 °C 29.82 in /  1009.7 hPa East 1.2 mph /  1.9 km/h 0.7 mph /  1.1 km/h 35 % 0 in /  0 mm
12:29 85.4 °F /  29.7 °C 54.6 °F /  12.6 °C 29.82 in /  1009.7 hPa South 2.3 mph /  3.7 km/h 0.6 mph /  1 km/h 35 % 0 in /  0 mm
12:34 85.9 °F /  29.9 °C 53.5 °F /  11.9 °C 29.82 in /  1009.7 hPa North 3.5 mph /  5.6 km/h 0.2 mph /  0.3 km/h 33 % 0 in /  0 mm
12:39 86.4 °F /  30.2 °C 53.1 °F /  11.7 °C 29.82 in /  1009.7 hPa SSW 3.5 mph /  5.6 km/h 1.4 mph /  2.3 km/h 32 % 0 in /  0 mm
12:44 86.8 °F /  30.4 °C 53.4 °F /  11.9 °C 29.81 in /  1009.4 hPa SSW 1.2 mph /  1.9 km/h 1 mph /  1.6 km/h 32 % 0 in /  0 mm
12:49 87.1 °F /  30.6 °C 55.3 °F /  12.9 °C 29.81 in /  1009.4 hPa ESE 1.2 mph /  1.9 km/h   34 % 0 in /  0 mm
12:54 87.6 °F /  30.9 °C 53.2 °F /  11.8 °C 29.81 in /  1009.4 hPa SE 2 mph /  3.2 km/h 1.2 mph /  1.9 km/h 31 % 0 in /  0 mm
12:59 87.8 °F /  31 °C 55.1 °F /  12.8 °C 29.81 in /  1009.4 hPa East 1.2 mph /  1.9 km/h 0.4 mph /  0.6 km/h 33 % 0 in /  0 mm
13:04 87.7 °F /  30.9 °C 53.3 °F /  11.8 °C 29.81 in /  1009.4 hPa SE 1.2 mph /  1.9 km/h 0.1 mph /  0.2 km/h 31 % 0 in /  0 mm
13:09 88.1 °F /  31.2 °C 52.8 °F /  11.6 °C 29.80 in /  1009 hPa NE 1.2 mph /  1.9 km/h 0.1 mph /  0.2 km/h 30 % 0 in /  0 mm
13:14 88.2 °F /  31.2 °C 53.7 °F /  12.1 °C 29.80 in /  1009 hPa East 2.3 mph /  3.7 km/h 0.1 mph /  0.2 km/h 31 % 0 in /  0 mm
13:19 88.6 °F /  31.4 °C 54.1 °F /  12.3 °C 29.80 in /  1009 hPa ESE 2.3 mph /  3.7 km/h 0.4 mph /  0.6 km/h 31 % 0 in /  0 mm
13:24 89 °F /  31.7 °C 53.5 °F /  11.9 °C 29.80 in /  1009 hPa NNW 1.2 mph /  1.9 km/h 0.5 mph /  0.8 km/h 30 % 0 in /  0 mm
13:29 89.2 °F /  31.8 °C 53.7 °F /  12.1 °C 29.80 in /  1009 hPa ESE 2.3 mph /  3.7 km/h 0.3 mph /  0.5 km/h 30 % 0 in /  0 mm
13:34 89 °F /  31.7 °C 49.7 °F /  9.8 °C 29.80 in /  1009 hPa NNW 3.5 mph /  5.6 km/h 1.3 mph /  2.1 km/h 26 % 0 in /  0 mm
13:39 88.6 °F /  31.4 °C 53.2 °F /  11.8 °C 29.79 in /  1008.7 hPa NW 1.2 mph /  1.9 km/h 0.4 mph /  0.6 km/h 30 % 0 in /  0 mm
13:44 89.3 °F /  31.8 °C 53.8 °F /  12.1 °C 29.79 in /  1008.7 hPa SE 1.2 mph /  1.9 km/h 0.1 mph /  0.2 km/h 30 % 0 in /  0 mm
13:49 90 °F /  32.2 °C 50.5 °F /  10.3 °C 29.79 in /  1008.7 hPa ESE 4.6 mph /  7.4 km/h 1.6 mph /  2.6 km/h 26 % 0 in /  0 mm
13:54 89.9 °F /  32.2 °C 52.4 °F /  11.3 °C 29.79 in /  1008.7 hPa WSW 1.2 mph /  1.9 km/h   28 % 0 in /  0 mm
13:59 89.6 °F /  32 °C 54.1 °F /  12.3 °C 29.78 in /  1008.4 hPa Calm     30 % 0 in /  0 mm
14:04 89.5 °F /  31.9 °C 54 °F /  12.2 °C 29.78 in /  1008.4 hPa NW 1.2 mph /  1.9 km/h 0.2 mph /  0.3 km/h 30 % 0 in /  0 mm
14:09 88.5 °F /  31.4 °C 53.1 °F /  11.7 °C 29.78 in /  1008.4 hPa WNW 1 mph /  1.6 km/h   30 % 0 in /  0 mm
14:14 88.1 °F /  31.2 °C 51.8 °F /  11 °C 29.78 in /  1008.4 hPa NW 2.3 mph /  3.7 km/h 0.4 mph /  0.6 km/h 29 % 0 in /  0 mm
14:19 88 °F /  31.1 °C 52.7 °F /  11.5 °C 29.78 in /  1008.4 hPa WNW 1.2 mph /  1.9 km/h 0.4 mph /  0.6 km/h 30 % 0 in /  0 mm
14:24 88.3 °F /  31.3 °C 54.7 °F /  12.6 °C 29.77 in /  1008 hPa SE 1.2 mph /  1.9 km/h   32 % 0 in /  0 mm
14:29 88.3 °F /  31.3 °C 52.9 °F /  11.6 °C 29.77 in /  1008 hPa NW 2.3 mph /  3.7 km/h 0.7 mph /  1.1 km/h 30 % 0 in /  0 mm
14:34 88.1 °F /  31.2 °C 53.7 °F /  12.1 °C 29.77 in /  1008 hPa NW 2.3 mph /  3.7 km/h   31 % 0 in /  0 mm
14:39 88.1 °F /  31.2 °C 53.7 °F /  12.1 °C 29.77 in /  1008 hPa Calm   0.3 mph /  0.5 km/h 31 % 0 in /  0 mm
14:44 88 °F /  31.1 °C 54.4 °F /  12.4 °C 29.77 in /  1008 hPa Calm     32 % 0 in /  0 mm
14:49 88.2 °F /  31.2 °C 52.9 °F /  11.6 °C 29.77 in /  1008 hPa WNW 1.2 mph /  1.9 km/h 0.8 mph /  1.3 km/h 30 % 0 in /  0 mm
14:54 87.9 °F /  31.1 °C 54.4 °F /  12.4 °C 29.77 in /  1008 hPa WNW 1 mph /  1.6 km/h 0.4 mph /  0.6 km/h 32 % 0 in /  0 mm
14:59 88.1 °F /  31.2 °C 53.7 °F /  12.1 °C 29.76 in /  1007.7 hPa NW 1.2 mph /  1.9 km/h 0.2 mph /  0.3 km/h 31 % 0 in /  0 mm
15:04 88.3 °F /  31.3 °C 52 °F /  11.1 °C 29.76 in /  1007.7 hPa NNW 1.2 mph /  1.9 km/h   29 % 0 in /  0 mm
15:09 88.8 °F /  31.6 °C 53.4 °F /  11.9 °C 29.76 in /  1007.7 hPa WSW 1.2 mph /  1.9 km/h 0.1 mph /  0.2 km/h 30 % 0 in /  0 mm
15:14 89.3 °F /  31.8 °C 52.9 °F /  11.6 °C 29.76 in /  1007.7 hPa Calm     29 % 0 in /  0 mm
15:19 89.9 °F /  32.2 °C 53.4 °F /  11.9 °C 29.76 in /  1007.7 hPa SW 1.2 mph /  1.9 km/h   29 % 0 in /  0 mm
15:24 90.4 °F /  32.4 °C 51.9 °F /  11.1 °C 29.76 in /  1007.7 hPa WSW 1.2 mph /  1.9 km/h 0.8 mph /  1.3 km/h 27 % 0 in /  0 mm
15:29 90.3 °F /  32.4 °C 50.8 °F /  10.4 °C 29.76 in /  1007.7 hPa WSW 2.3 mph /  3.7 km/h 0.5 mph /  0.8 km/h 26 % 0 in /  0 mm
15:34 90 °F /  32.2 °C 51.5 °F /  10.8 °C 29.76 in /  1007.7 hPa NW 2.3 mph /  3.7 km/h 1.4 mph /  2.3 km/h 27 % 0 in /  0 mm
15:39 89.9 °F /  32.2 °C 53.4 °F /  11.9 °C 29.75 in /  1007.3 hPa WNW 1.2 mph /  1.9 km/h 0.3 mph /  0.5 km/h 29 % 0 in /  0 mm
15:44 89.9 °F /  32.2 °C 51.4 °F /  10.8 °C 29.75 in /  1007.3 hPa Calm     27 % 0 in /  0 mm
15:49 89.8 °F /  32.1 °C 52.3 °F /  11.3 °C 29.75 in /  1007.3 hPa East 1.2 mph /  1.9 km/h 0.1 mph /  0.2 km/h 28 % 0 in /  0 mm
15:54 89.9 °F /  32.2 °C 51.4 °F /  10.8 °C 29.75 in /  1007.3 hPa WNW 3.5 mph /  5.6 km/h 0.2 mph /  0.3 km/h 27 % 0 in /  0 mm
15:59 90.1 °F /  32.3 °C 52.6 °F /  11.4 °C 29.75 in /  1007.3 hPa Calm   0.1 mph /  0.2 km/h 28 % 0 in /  0 mm
16:04 90.3 °F /  32.4 °C 52.8 °F /  11.6 °C 29.75 in /  1007.3 hPa NW 3.5 mph /  5.6 km/h 0.8 mph /  1.3 km/h 28 % 0 in /  0 mm
16:09 90.2 °F /  32.3 °C 51.7 °F /  10.9 °C 29.75 in /  1007.3 hPa NW 3.5 mph /  5.6 km/h 1.3 mph /  2.1 km/h 27 % 0 in /  0 mm
16:14 90.3 °F /  32.4 °C 51.8 °F /  11 °C 29.74 in /  1007 hPa WNW 1.2 mph /  1.9 km/h 0.1 mph /  0.2 km/h 27 % 0 in /  0 mm
16:19 90.1 °F /  32.3 °C 51.6 °F /  10.9 °C 29.74 in /  1007 hPa WNW 1.2 mph /  1.9 km/h   27 % 0 in /  0 mm
16:24 89.6 °F /  32 °C 51.2 °F /  10.7 °C 29.74 in /  1007 hPa Calm     27 % 0 in /  0 mm
16:29 89.1 °F /  31.7 °C 48.7 °F /  9.3 °C 29.74 in /  1007 hPa NNW 1.2 mph /  1.9 km/h 0.4 mph /  0.6 km/h 25 % 0 in /  0 mm
16:34 88.8 °F /  31.6 °C 47.4 °F /  8.6 °C 29.74 in /  1007 hPa WNW 1.2 mph /  1.9 km/h 0.7 mph /  1.1 km/h 24 % 0 in /  0 mm
16:39 88.3 °F /  31.3 °C 48 °F /  8.9 °C 29.75 in /  1007.3 hPa WNW 1.2 mph /  1.9 km/h 0.6 mph /  1 km/h 25 % 0 in /  0 mm
16:44 88 °F /  31.1 °C 49.8 °F /  9.9 °C 29.75 in /  1007.3 hPa Calm   0.1 mph /  0.2 km/h 27 % 0 in /  0 mm
16:49 88.1 °F /  31.2 °C 49.9 °F /  9.9 °C 29.74 in /  1007 hPa NW 2.3 mph /  3.7 km/h 1.2 mph /  1.9 km/h 27 % 0 in /  0 mm
16:54 87.9 °F /  31.1 °C 49.7 °F /  9.8 °C 29.75 in /  1007.3 hPa NW 2.3 mph /  3.7 km/h 1.2 mph /  1.9 km/h 27 % 0 in /  0 mm
16:59 88.1 °F /  31.2 °C 50.9 °F /  10.5 °C 29.75 in /  1007.3 hPa NW 1.2 mph /  1.9 km/h 0.5 mph /  0.8 km/h 28 % 0 in /  0 mm
17:04 88.5 °F /  31.4 °C 51.2 °F /  10.7 °C 29.74 in /  1007 hPa WNW 2 mph /  3.2 km/h 0.6 mph /  1 km/h 28 % 0 in /  0 mm
17:09 88.8 °F /  31.6 °C 51.5 °F /  10.8 °C 29.74 in /  1007 hPa NW 1.2 mph /  1.9 km/h 0.3 mph /  0.5 km/h 28 % 0 in /  0 mm
17:14 88.6 °F /  31.4 °C 49.3 °F /  9.6 °C 29.74 in /  1007 hPa NW 2.3 mph /  3.7 km/h 1 mph /  1.6 km/h 26 % 0 in /  0 mm
17:19 88.2 °F /  31.2 °C 50 °F /  10 °C 29.74 in /  1007 hPa NW 1.2 mph /  1.9 km/h 0.5 mph /  0.8 km/h 27 % 0 in /  0 mm
17:24 87.6 °F /  30.9 °C 49.5 °F /  9.7 °C 29.74 in /  1007 hPa Calm   0.2 mph /  0.3 km/h 27 % 0 in /  0 mm
17:29 87 °F /  30.6 °C 50.9 °F /  10.5 °C 29.74 in /  1007 hPa West 1.2 mph /  1.9 km/h 0.2 mph /  0.3 km/h 29 % 0 in /  0 mm
17:34 86.4 °F /  30.2 °C 51.3 °F /  10.7 °C 29.74 in /  1007 hPa Calm     30 % 0 in /  0 mm
17:39 85.7 °F /  29.8 °C 52.4 °F /  11.3 °C 29.74 in /  1007 hPa Calm   0.1 mph /  0.2 km/h 32 % 0 in /  0 mm
17:44 85.1 °F /  29.5 °C 52.8 °F /  11.6 °C 29.74 in /  1007 hPa Calm     33 % 0 in /  0 mm
17:49 84.6 °F /  29.2 °C 53.1 °F /  11.7 °C 29.74 in /  1007 hPa Calm     34 % 0 in /  0 mm
17:54 84.1 °F /  28.9 °C 52.7 °F /  11.5 °C 29.74 in /  1007 hPa Calm     34 % 0 in /  0 mm
17:59 83.8 °F /  28.8 °C 53.2 °F /  11.8 °C 29.74 in /  1007 hPa Calm     35 % 0 in /  0 mm
18:04 83.8 °F /  28.8 °C 53.2 °F /  11.8 °C 29.74 in /  1007 hPa Calm     35 % 0 in /  0 mm
18:09 83.7 °F /  28.7 °C 53.1 °F /  11.7 °C 29.74 in /  1007 hPa Calm     35 % 0 in /  0 mm
18:14 83.7 °F /  28.7 °C 53.1 °F /  11.7 °C 29.74 in /  1007 hPa West 1.2 mph /  1.9 km/h   35 % 0 in /  0 mm
18:19 83.5 °F /  28.6 °C 53.7 °F /  12.1 °C 29.74 in /  1007 hPa Calm     36 % 0 in /  0 mm
18:24 83.2 °F /  28.4 °C 52.7 °F /  11.5 °C 29.74 in /  1007 hPa Calm     35 % 0 in /  0 mm
18:29 82.9 °F /  28.3 °C 54.7 °F /  12.6 °C 29.74 in /  1007 hPa Calm     38 % 0 in /  0 mm
18:34 82.3 °F /  27.9 °C 55.6 °F /  13.1 °C 29.74 in /  1007 hPa Calm     40 % 0 in /  0 mm
18:39 81.8 °F /  27.7 °C 55.8 °F /  13.2 °C 29.74 in /  1007 hPa Calm     41 % 0 in /  0 mm
18:44 81.2 °F /  27.3 °C 55.3 °F /  12.9 °C 29.74 in /  1007 hPa Calm     41 % 0 in /  0 mm
18:49 80.6 °F /  27 °C 55.4 °F /  13 °C 29.74 in /  1007 hPa Calm     42 % 0 in /  0 mm
18:54 79.9 °F /  26.6 °C 56.7 °F /  13.7 °C 29.74 in /  1007 hPa Calm     45 % 0 in /  0 mm
18:59 79.2 °F /  26.2 °C 56 °F /  13.3 °C 29.74 in /  1007 hPa Calm     45 % 0 in /  0 mm
19:04 78.5 °F /  25.8 °C 56 °F /  13.3 °C 29.74 in /  1007 hPa Calm     46 % 0 in /  0 mm
19:09 77.9 °F /  25.5 °C 56 °F /  13.3 °C 29.75 in /  1007.3 hPa Calm     47 % 0 in /  0 mm
19:14 77.4 °F /  25.2 °C 55.6 °F /  13.1 °C 29.75 in /  1007.3 hPa Calm     47 % 0 in /  0 mm
19:19 76.9 °F /  24.9 °C 56.8 °F /  13.8 °C 29.75 in /  1007.3 hPa Calm     50 % 0 in /  0 mm
19:24 76.3 °F /  24.6 °C 55.7 °F /  13.2 °C 29.75 in /  1007.3 hPa Calm     49 % 0 in /  0 mm
19:29 75.9 °F /  24.4 °C 57 °F /  13.9 °C 29.75 in /  1007.3 hPa Calm     52 % 0 in /  0 mm
19:34 75.5 °F /  24.2 °C 55.6 °F /  13.1 °C 29.75 in /  1007.3 hPa Calm     50 % 0 in /  0 mm
19:39 75.2 °F /  24 °C 56.4 °F /  13.6 °C 29.75 in /  1007.3 hPa Calm     52 % 0 in /  0 mm
19:44 75.1 °F /  23.9 °C 56.3 °F /  13.5 °C 29.75 in /  1007.3 hPa Calm     52 % 0 in /  0 mm
19:49 74.9 °F /  23.8 °C 56.6 °F /  13.7 °C 29.75 in /  1007.3 hPa Calm     53 % 0 in /  0 mm
19:54 74.6 °F /  23.7 °C 55.8 °F /  13.2 °C 29.75 in /  1007.3 hPa Calm     52 % 0 in /  0 mm
19:59 74.3 °F /  23.5 °C 56.1 °F /  13.4 °C 29.75 in /  1007.3 hPa Calm     53 % 0 in /  0 mm
20:04 74 °F /  23.3 °C 55.3 °F /  12.9 °C 29.76 in /  1007.7 hPa Calm     52 % 0 in /  0 mm
20:09 73.7 °F /  23.2 °C 57 °F /  13.9 °C 29.76 in /  1007.7 hPa Calm     56 % 0 in /  0 mm
20:14 73.4 °F /  23 °C 55.7 °F /  13.2 °C 29.76 in /  1007.7 hPa Calm     54 % 0 in /  0 mm
20:19 73.2 °F /  22.9 °C 55.6 °F /  13.1 °C 29.76 in /  1007.7 hPa Calm     54 % 0 in /  0 mm
20:24 73 °F /  22.8 °C 55.9 °F /  13.3 °C 29.76 in /  1007.7 hPa Calm     55 % 0 in /  0 mm
20:29 73 °F /  22.8 °C 55.9 °F /  13.3 °C 29.77 in /  1008 hPa Calm     55 % 0 in /  0 mm
20:34 72.9 °F /  22.7 °C 55.8 °F /  13.2 °C 29.77 in /  1008 hPa Calm     55 % 0 in /  0 mm
20:39 72.6 °F /  22.6 °C 55 °F /  12.8 °C 29.77 in /  1008 hPa Calm     54 % 0 in /  0 mm
20:44 72.4 °F /  22.4 °C 56.3 °F /  13.5 °C 29.77 in /  1008 hPa Calm     57 % 0 in /  0 mm
20:49 72.2 °F /  22.3 °C 56.6 °F /  13.7 °C 29.77 in /  1008 hPa Calm     58 % 0 in /  0 mm
20:54 71.9 °F /  22.2 °C 56.8 °F /  13.8 °C 29.77 in /  1008 hPa Calm     59 % 0 in /  0 mm
20:59 71.7 °F /  22.1 °C 56.6 °F /  13.7 °C 29.77 in /  1008 hPa Calm     59 % 0 in /  0 mm
21:04 71.2 °F /  21.8 °C 57.1 °F /  13.9 °C 29.78 in /  1008.4 hPa Calm     61 % 0 in /  0 mm
21:09 70.6 °F /  21.4 °C 57.4 °F /  14.1 °C 29.78 in /  1008.4 hPa Calm     63 % 0 in /  0 mm
21:14 70.1 °F /  21.2 °C 57.4 °F /  14.1 °C 29.78 in /  1008.4 hPa Calm     64 % 0 in /  0 mm
21:19 69.8 °F /  21 °C 56.2 °F /  13.4 °C 29.78 in /  1008.4 hPa Calm     62 % 0 in /  0 mm
21:24 69.4 °F /  20.8 °C 56.3 °F /  13.5 °C 29.78 in /  1008.4 hPa Calm     63 % 0 in /  0 mm
21:29 69 °F /  20.6 °C 56.3 °F /  13.5 °C 29.78 in /  1008.4 hPa Calm     64 % 0 in /  0 mm
21:34 69 °F /  20.6 °C 56.3 °F /  13.5 °C 29.78 in /  1008.4 hPa Calm     64 % 0 in /  0 mm
21:39 68.9 °F /  20.5 °C 56.6 °F /  13.7 °C 29.78 in /  1008.4 hPa Calm     65 % 0 in /  0 mm
21:44 68.5 °F /  20.3 °C 56.7 °F /  13.7 °C 29.79 in /  1008.7 hPa Calm     66 % 0 in /  0 mm
21:49 68.1 °F /  20.1 °C 57.1 °F /  13.9 °C 29.79 in /  1008.7 hPa Calm     68 % 0 in /  0 mm
21:54 68 °F /  20 °C 57 °F /  13.9 °C 29.79 in /  1008.7 hPa Calm     68 % 0 in /  0 mm
21:59 67.9 °F /  19.9 °C 56.5 °F /  13.6 °C 29.79 in /  1008.7 hPa Calm     67 % 0 in /  0 mm
22:04 67.8 °F /  19.9 °C 56.4 °F /  13.6 °C 29.79 in /  1008.7 hPa West 1 mph /  1.6 km/h   67 % 0 in /  0 mm
22:09 67.4 °F /  19.7 °C 56.1 °F /  13.4 °C 29.80 in /  1009 hPa Calm     67 % 0 in /  0 mm
22:14 67.1 °F /  19.5 °C 56.6 °F /  13.7 °C 29.80 in /  1009 hPa Calm     69 % 0 in /  0 mm
22:19 66.7 °F /  19.3 °C 55.8 °F /  13.2 °C 29.80 in /  1009 hPa Calm     68 % 0 in /  0 mm
22:24 66.6 °F /  19.2 °C 55.7 °F /  13.2 °C 29.80 in /  1009 hPa Calm     68 % 0 in /  0 mm
22:29 66.8 °F /  19.3 °C 56.3 °F /  13.5 °C 29.80 in /  1009 hPa Calm     69 % 0 in /  0 mm
22:34 67 °F /  19.4 °C 56.1 °F /  13.4 °C 29.80 in /  1009 hPa Calm     68 % 0 in /  0 mm
22:39 66.9 °F /  19.4 °C 56.4 °F /  13.6 °C 29.80 in /  1009 hPa Calm     69 % 0 in /  0 mm
Park Place, Exeter, Tulare County, California, USA
Compliments of Weather Underground - 2.75 mb